sensor_id;sensor_type;location;lat;lon;timestamp;P1;durP1;ratioP1;P2;durP2;ratioP2
24729;SDS011;12832;52.392;13.066;2023-04-08T00:00:50;1.10;;;1.00;;
24729;SDS011;12832;52.392;13.066;2023-04-08T00:03:16;0.88;;;0.88;;
24729;SDS011;12832;52.392;13.066;2023-04-08T00:05:43;0.90;;;0.90;;
24729;SDS011;12832;52.392;13.066;2023-04-08T00:08:14;0.77;;;0.77;;
24729;SDS011;12832;52.392;13.066;2023-04-08T00:10:42;1.15;;;0.88;;
24729;SDS011;12832;52.392;13.066;2023-04-08T00:13:08;1.05;;;0.95;;
24729;SDS011;12832;52.392;13.066;2023-04-08T00:15:37;0.80;;;0.80;;
24729;SDS011;12832;52.392;13.066;2023-04-08T00:18:03;1.10;;;1.00;;
24729;SDS011;12832;52.392;13.066;2023-04-08T00:20:29;1.30;;;1.20;;
24729;SDS011;12832;52.392;13.066;2023-04-08T00:22:57;0.90;;;0.90;;
24729;SDS011;12832;52.392;13.066;2023-04-08T00:25:23;1.10;;;1.00;;
24729;SDS011;12832;52.392;13.066;2023-04-08T00:27:51;1.10;;;1.00;;
24729;SDS011;12832;52.392;13.066;2023-04-08T00:30:20;1.23;;;1.13;;
24729;SDS011;12832;52.392;13.066;2023-04-08T00:32:53;1.15;;;1.05;;
24729;SDS011;12832;52.392;13.066;2023-04-08T00:35:19;0.82;;;0.82;;
24729;SDS011;12832;52.392;13.066;2023-04-08T00:37:48;1.17;;;1.02;;
24729;SDS011;12832;52.392;13.066;2023-04-08T00:40:17;0.80;;;0.80;;
24729;SDS011;12832;52.392;13.066;2023-04-08T00:42:48;1.38;;;1.27;;
24729;SDS011;12832;52.392;13.066;2023-04-08T00:45:14;1.10;;;1.00;;
24729;SDS011;12832;52.392;13.066;2023-04-08T00:47:40;1.23;;;1.13;;
24729;SDS011;12832;52.392;13.066;2023-04-08T00:50:08;0.95;;;0.93;;
24729;SDS011;12832;52.392;13.066;2023-04-08T00:52:49;1.20;;;1.00;;
24729;SDS011;12832;52.392;13.066;2023-04-08T00:55:20;0.85;;;0.80;;
24729;SDS011;12832;52.392;13.066;2023-04-08T00:57:47;1.15;;;1.05;;
24729;SDS011;12832;52.392;13.066;2023-04-08T01:00:17;1.10;;;1.00;;
24729;SDS011;12832;52.392;13.066;2023-04-08T01:03:00;1.20;;;1.10;;
24729;SDS011;12832;52.392;13.066;2023-04-08T01:05:45;1.13;;;1.02;;
24729;SDS011;12832;52.392;13.066;2023-04-08T01:08:27;1.25;;;1.00;;
24729;SDS011;12832;52.392;13.066;2023-04-08T01:11:00;0.98;;;0.95;;
24729;SDS011;12832;52.392;13.066;2023-04-08T01:13:33;1.00;;;0.90;;
24729;SDS011;12832;52.392;13.066;2023-04-08T01:16:12;1.00;;;0.90;;
24729;SDS011;12832;52.392;13.066;2023-04-08T01:18:40;1.17;;;1.08;;
24729;SDS011;12832;52.392;13.066;2023-04-08T01:21:16;1.10;;;1.00;;
24729;SDS011;12832;52.392;13.066;2023-04-08T01:26:36;0.90;;;0.80;;
24729;SDS011;12832;52.392;13.066;2023-04-08T01:29:03;0.90;;;0.90;;
24729;SDS011;12832;52.392;13.066;2023-04-08T01:31:37;1.15;;;1.05;;
24729;SDS011;12832;52.392;13.066;2023-04-08T01:34:07;1.02;;;1.00;;
24729;SDS011;12832;52.392;13.066;2023-04-08T01:36:38;0.90;;;0.90;;
24729;SDS011;12832;52.392;13.066;2023-04-08T01:39:08;0.77;;;0.77;;
24729;SDS011;12832;52.392;13.066;2023-04-08T01:41:36;1.30;;;1.20;;
24729;SDS011;12832;52.392;13.066;2023-04-08T01:44:03;1.17;;;1.08;;
24729;SDS011;12832;52.392;13.066;2023-04-08T01:46:34;1.20;;;1.10;;
24729;SDS011;12832;52.392;13.066;2023-04-08T01:49:01;0.98;;;0.93;;
24729;SDS011;12832;52.392;13.066;2023-04-08T01:51:31;1.20;;;1.10;;
24729;SDS011;12832;52.392;13.066;2023-04-08T01:53:58;1.02;;;0.93;;
24729;SDS011;12832;52.392;13.066;2023-04-08T01:56:26;0.80;;;0.80;;
24729;SDS011;12832;52.392;13.066;2023-04-08T01:59:09;1.15;;;1.08;;
24729;SDS011;12832;52.392;13.066;2023-04-08T02:01:44;1.10;;;1.00;;
24729;SDS011;12832;52.392;13.066;2023-04-08T02:04:34;1.20;;;1.10;;
24729;SDS011;12832;52.392;13.066;2023-04-08T02:07:04;0.80;;;0.80;;
24729;SDS011;12832;52.392;13.066;2023-04-08T02:09:32;1.02;;;1.00;;
24729;SDS011;12832;52.392;13.066;2023-04-08T02:11:59;0.98;;;0.93;;
24729;SDS011;12832;52.392;13.066;2023-04-08T02:14:26;0.82;;;0.82;;
24729;SDS011;12832;52.392;13.066;2023-04-08T02:17:37;0.80;;;0.80;;
24729;SDS011;12832;52.392;13.066;2023-04-08T02:19:53;0.90;;;0.90;;
24729;SDS011;12832;52.392;13.066;2023-04-08T02:22:49;1.20;;;1.10;;
24729;SDS011;12832;52.392;13.066;2023-04-08T02:25:26;1.20;;;1.10;;
24729;SDS011;12832;52.392;13.066;2023-04-08T02:27:55;1.05;;;1.00;;
24729;SDS011;12832;52.392;13.066;2023-04-08T02:30:22;0.95;;;0.95;;
24729;SDS011;12832;52.392;13.066;2023-04-08T02:32:50;1.20;;;1.10;;
24729;SDS011;12832;52.392;13.066;2023-04-08T02:35:20;0.85;;;0.85;;
24729;SDS011;12832;52.392;13.066;2023-04-08T02:37:48;0.90;;;0.90;;
24729;SDS011;12832;52.392;13.066;2023-04-08T02:42:51;0.90;;;0.90;;
24729;SDS011;12832;52.392;13.066;2023-04-08T02:45:20;0.70;;;0.70;;
24729;SDS011;12832;52.392;13.066;2023-04-08T02:47:56;1.02;;;0.80;;
24729;SDS011;12832;52.392;13.066;2023-04-08T02:50:30;0.90;;;0.88;;
24729;SDS011;12832;52.392;13.066;2023-04-08T02:52:57;0.93;;;0.93;;
24729;SDS011;12832;52.392;13.066;2023-04-08T02:55:31;0.93;;;0.93;;
24729;SDS011;12832;52.392;13.066;2023-04-08T02:57:58;0.80;;;0.80;;
24729;SDS011;12832;52.392;13.066;2023-04-08T03:00:26;0.85;;;0.85;;
24729;SDS011;12832;52.392;13.066;2023-04-08T03:02:52;1.20;;;1.10;;
24729;SDS011;12832;52.392;13.066;2023-04-08T03:05:18;0.80;;;0.80;;
24729;SDS011;12832;52.392;13.066;2023-04-08T03:07:45;1.15;;;1.10;;
24729;SDS011;12832;52.392;13.066;2023-04-08T03:10:13;0.90;;;0.90;;
24729;SDS011;12832;52.392;13.066;2023-04-08T03:12:39;1.00;;;1.00;;
24729;SDS011;12832;52.392;13.066;2023-04-08T03:15:09;1.02;;;1.02;;
24729;SDS011;12832;52.392;13.066;2023-04-08T03:17:40;1.20;;;1.13;;
24729;SDS011;12832;52.392;13.066;2023-04-08T03:20:28;1.00;;;1.00;;
24729;SDS011;12832;52.392;13.066;2023-04-08T03:22:57;0.95;;;0.93;;
24729;SDS011;12832;52.392;13.066;2023-04-08T03:25:23;0.95;;;0.90;;
24729;SDS011;12832;52.392;13.066;2023-04-08T03:27:49;1.10;;;1.00;;
24729;SDS011;12832;52.392;13.066;2023-04-08T03:30:20;1.20;;;1.10;;
24729;SDS011;12832;52.392;13.066;2023-04-08T03:32:48;0.82;;;0.82;;
24729;SDS011;12832;52.392;13.066;2023-04-08T03:35:16;1.10;;;1.00;;
24729;SDS011;12832;52.392;13.066;2023-04-08T03:37:44;1.02;;;1.02;;
24729;SDS011;12832;52.392;13.066;2023-04-08T03:40:19;1.20;;;1.10;;
24729;SDS011;12832;52.392;13.066;2023-04-08T03:42:47;1.15;;;1.05;;
24729;SDS011;12832;52.392;13.066;2023-04-08T03:45:17;1.00;;;1.00;;
24729;SDS011;12832;52.392;13.066;2023-04-08T03:47:44;1.05;;;1.05;;
24729;SDS011;12832;52.392;13.066;2023-04-08T03:50:12;1.30;;;1.20;;
24729;SDS011;12832;52.392;13.066;2023-04-08T03:52:38;1.20;;;1.10;;
24729;SDS011;12832;52.392;13.066;2023-04-08T03:55:06;1.20;;;1.10;;
24729;SDS011;12832;52.392;13.066;2023-04-08T03:57:32;1.25;;;1.15;;
24729;SDS011;12832;52.392;13.066;2023-04-08T03:59:58;1.10;;;1.00;;
24729;SDS011;12832;52.392;13.066;2023-04-08T04:02:32;0.90;;;0.90;;
24729;SDS011;12832;52.392;13.066;2023-04-08T04:04:58;1.13;;;1.02;;
24729;SDS011;12832;52.392;13.066;2023-04-08T04:07:25;1.30;;;1.20;;
24729;SDS011;12832;52.392;13.066;2023-04-08T04:10:02;1.30;;;1.20;;
24729;SDS011;12832;52.392;13.066;2023-04-08T04:12:28;0.88;;;0.88;;
24729;SDS011;12832;52.392;13.066;2023-04-08T04:14:58;1.20;;;1.10;;
24729;SDS011;12832;52.392;13.066;2023-04-08T04:17:24;1.30;;;1.20;;
24729;SDS011;12832;52.392;13.066;2023-04-08T04:19:52;1.13;;;1.10;;
24729;SDS011;12832;52.392;13.066;2023-04-08T04:22:19;1.10;;;1.10;;
24729;SDS011;12832;52.392;13.066;2023-04-08T04:24:53;1.23;;;1.13;;
24729;SDS011;12832;52.392;13.066;2023-04-08T04:27:21;1.20;;;1.10;;
24729;SDS011;12832;52.392;13.066;2023-04-08T04:29:47;1.10;;;1.00;;
24729;SDS011;12832;52.392;13.066;2023-04-08T04:32:15;1.40;;;1.30;;
24729;SDS011;12832;52.392;13.066;2023-04-08T04:34:43;1.20;;;1.10;;
24729;SDS011;12832;52.392;13.066;2023-04-08T04:37:13;1.40;;;1.30;;
24729;SDS011;12832;52.392;13.066;2023-04-08T04:39:40;1.42;;;1.33;;
24729;SDS011;12832;52.392;13.066;2023-04-08T04:42:23;1.20;;;1.10;;
24729;SDS011;12832;52.392;13.066;2023-04-08T04:44:53;1.08;;;1.08;;
24729;SDS011;12832;52.392;13.066;2023-04-08T04:47:20;1.40;;;1.30;;
24729;SDS011;12832;52.392;13.066;2023-04-08T04:49:46;1.48;;;1.38;;
24729;SDS011;12832;52.392;13.066;2023-04-08T04:52:15;1.17;;;1.10;;
24729;SDS011;12832;52.392;13.066;2023-04-08T04:54:41;1.35;;;1.25;;
24729;SDS011;12832;52.392;13.066;2023-04-08T04:57:18;1.38;;;1.27;;
24729;SDS011;12832;52.392;13.066;2023-04-08T04:59:48;1.23;;;1.13;;
24729;SDS011;12832;52.392;13.066;2023-04-08T05:02:37;1.30;;;1.20;;
24729;SDS011;12832;52.392;13.066;2023-04-08T05:05:07;1.35;;;1.20;;
24729;SDS011;12832;52.392;13.066;2023-04-08T05:07:37;1.48;;;1.38;;
24729;SDS011;12832;52.392;13.066;2023-04-08T05:10:04;1.40;;;1.30;;
24729;SDS011;12832;52.392;13.066;2023-04-08T05:12:31;1.55;;;1.45;;
24729;SDS011;12832;52.392;13.066;2023-04-08T05:14:57;1.40;;;1.30;;
24729;SDS011;12832;52.392;13.066;2023-04-08T05:17:31;1.30;;;1.20;;
24729;SDS011;12832;52.392;13.066;2023-04-08T05:20:02;1.23;;;1.02;;
24729;SDS011;12832;52.392;13.066;2023-04-08T05:22:28;1.38;;;1.27;;
24729;SDS011;12832;52.392;13.066;2023-04-08T05:24:58;1.40;;;1.30;;
24729;SDS011;12832;52.392;13.066;2023-04-08T05:27:34;1.30;;;1.20;;
24729;SDS011;12832;52.392;13.066;2023-04-08T05:30:00;1.35;;;1.25;;
24729;SDS011;12832;52.392;13.066;2023-04-08T05:32:33;1.40;;;1.30;;
24729;SDS011;12832;52.392;13.066;2023-04-08T05:35:04;1.95;;;1.45;;
24729;SDS011;12832;52.392;13.066;2023-04-08T05:37:34;1.33;;;1.23;;
24729;SDS011;12832;52.392;13.066;2023-04-08T05:40:05;1.20;;;1.10;;
24729;SDS011;12832;52.392;13.066;2023-04-08T05:42:31;1.50;;;1.40;;
24729;SDS011;12832;52.392;13.066;2023-04-08T05:45:00;1.30;;;1.20;;
24729;SDS011;12832;52.392;13.066;2023-04-08T05:47:26;1.40;;;1.30;;
24729;SDS011;12832;52.392;13.066;2023-04-08T05:49:52;1.30;;;1.20;;
24729;SDS011;12832;52.392;13.066;2023-04-08T05:52:28;1.35;;;1.25;;
24729;SDS011;12832;52.392;13.066;2023-04-08T05:54:54;1.52;;;1.42;;
24729;SDS011;12832;52.392;13.066;2023-04-08T05:57:25;1.15;;;1.10;;
24729;SDS011;12832;52.392;13.066;2023-04-08T05:59:52;1.50;;;1.40;;
24729;SDS011;12832;52.392;13.066;2023-04-08T06:02:18;1.48;;;1.38;;
24729;SDS011;12832;52.392;13.066;2023-04-08T06:04:45;1.27;;;1.17;;
24729;SDS011;12832;52.392;13.066;2023-04-08T06:07:12;1.33;;;1.23;;
24729;SDS011;12832;52.392;13.066;2023-04-08T06:09:40;1.60;;;1.50;;
24729;SDS011;12832;52.392;13.066;2023-04-08T06:12:12;1.40;;;1.30;;
24729;SDS011;12832;52.392;13.066;2023-04-08T06:14:38;1.70;;;1.60;;
24729;SDS011;12832;52.392;13.066;2023-04-08T06:17:04;1.45;;;1.35;;
24729;SDS011;12832;52.392;13.066;2023-04-08T06:19:31;1.38;;;1.27;;
24729;SDS011;12832;52.392;13.066;2023-04-08T06:21:57;1.50;;;1.40;;
24729;SDS011;12832;52.392;13.066;2023-04-08T06:24:27;1.30;;;1.20;;
24729;SDS011;12832;52.392;13.066;2023-04-08T06:27:04;1.45;;;1.35;;
24729;SDS011;12832;52.392;13.066;2023-04-08T06:29:32;1.45;;;1.35;;
24729;SDS011;12832;52.392;13.066;2023-04-08T06:32:03;1.40;;;1.30;;
24729;SDS011;12832;52.392;13.066;2023-04-08T06:34:33;1.55;;;1.45;;
24729;SDS011;12832;52.392;13.066;2023-04-08T06:36:59;1.30;;;1.20;;
24729;SDS011;12832;52.392;13.066;2023-04-08T06:39:26;1.42;;;1.33;;
24729;SDS011;12832;52.392;13.066;2023-04-08T06:41:57;1.63;;;1.30;;
24729;SDS011;12832;52.392;13.066;2023-04-08T06:44:24;1.50;;;1.40;;
24729;SDS011;12832;52.392;13.066;2023-04-08T06:46:50;1.70;;;1.60;;
24729;SDS011;12832;52.392;13.066;2023-04-08T06:49:17;1.50;;;1.40;;
24729;SDS011;12832;52.392;13.066;2023-04-08T06:51:43;1.52;;;1.42;;
24729;SDS011;12832;52.392;13.066;2023-04-08T06:54:09;1.60;;;1.50;;
24729;SDS011;12832;52.392;13.066;2023-04-08T06:56:36;1.50;;;1.40;;
24729;SDS011;12832;52.392;13.066;2023-04-08T06:59:12;1.55;;;1.45;;
24729;SDS011;12832;52.392;13.066;2023-04-08T07:01:43;1.60;;;1.50;;
24729;SDS011;12832;52.392;13.066;2023-04-08T07:04:12;2.28;;;1.30;;
24729;SDS011;12832;52.392;13.066;2023-04-08T07:06:39;1.42;;;1.33;;
24729;SDS011;12832;52.392;13.066;2023-04-08T07:09:08;1.65;;;1.55;;
24729;SDS011;12832;52.392;13.066;2023-04-08T07:11:36;1.55;;;1.45;;
24729;SDS011;12832;52.392;13.066;2023-04-08T07:14:05;1.70;;;1.60;;
24729;SDS011;12832;52.392;13.066;2023-04-08T07:16:31;1.80;;;1.70;;
24729;SDS011;12832;52.392;13.066;2023-04-08T07:18:57;1.60;;;1.50;;
24729;SDS011;12832;52.392;13.066;2023-04-08T07:21:23;1.83;;;1.73;;
24729;SDS011;12832;52.392;13.066;2023-04-08T07:23:55;1.77;;;1.67;;
24729;SDS011;12832;52.392;13.066;2023-04-08T07:26:27;1.60;;;1.50;;
24729;SDS011;12832;52.392;13.066;2023-04-08T07:29:04;1.50;;;1.40;;
24729;SDS011;12832;52.392;13.066;2023-04-08T07:31:30;1.77;;;1.67;;
24729;SDS011;12832;52.392;13.066;2023-04-08T07:33:58;1.83;;;1.67;;
24729;SDS011;12832;52.392;13.066;2023-04-08T07:36:24;1.73;;;1.63;;
24729;SDS011;12832;52.392;13.066;2023-04-08T07:38:51;1.42;;;1.33;;
24729;SDS011;12832;52.392;13.066;2023-04-08T07:41:25;1.60;;;1.50;;
24729;SDS011;12832;52.392;13.066;2023-04-08T07:43:51;1.75;;;1.65;;
24729;SDS011;12832;52.392;13.066;2023-04-08T07:46:22;1.77;;;1.58;;
24729;SDS011;12832;52.392;13.066;2023-04-08T07:48:56;1.42;;;1.33;;
24729;SDS011;12832;52.392;13.066;2023-04-08T07:51:25;1.77;;;1.67;;
24729;SDS011;12832;52.392;13.066;2023-04-08T07:53:55;1.77;;;1.67;;
24729;SDS011;12832;52.392;13.066;2023-04-08T07:56:22;1.52;;;1.42;;
24729;SDS011;12832;52.392;13.066;2023-04-08T07:58:49;1.90;;;1.80;;
24729;SDS011;12832;52.392;13.066;2023-04-08T08:01:23;2.15;;;1.95;;
24729;SDS011;12832;52.392;13.066;2023-04-08T08:03:49;2.00;;;1.90;;
24729;SDS011;12832;52.392;13.066;2023-04-08T08:06:18;1.80;;;1.70;;
24729;SDS011;12832;52.392;13.066;2023-04-08T08:08:46;2.05;;;1.92;;
24729;SDS011;12832;52.392;13.066;2023-04-08T08:11:13;1.80;;;1.70;;
24729;SDS011;12832;52.392;13.066;2023-04-08T08:13:40;1.95;;;1.85;;
24729;SDS011;12832;52.392;13.066;2023-04-08T08:16:09;1.73;;;1.63;;
24729;SDS011;12832;52.392;13.066;2023-04-08T08:18:37;2.20;;;2.00;;
24729;SDS011;12832;52.392;13.066;2023-04-08T08:21:05;1.95;;;1.80;;
24729;SDS011;12832;52.392;13.066;2023-04-08T08:23:32;2.10;;;1.90;;
24729;SDS011;12832;52.392;13.066;2023-04-08T08:26:02;1.70;;;1.60;;
24729;SDS011;12832;52.392;13.066;2023-04-08T08:28:31;1.92;;;1.83;;
24729;SDS011;12832;52.392;13.066;2023-04-08T08:30:59;1.92;;;1.77;;
24729;SDS011;12832;52.392;13.066;2023-04-08T08:33:28;4.55;;;1.90;;
24729;SDS011;12832;52.392;13.066;2023-04-08T08:35:55;1.88;;;1.77;;
24729;SDS011;12832;52.392;13.066;2023-04-08T08:38:29;2.15;;;1.95;;
24729;SDS011;12832;52.392;13.066;2023-04-08T08:40:58;2.25;;;2.10;;
24729;SDS011;12832;52.392;13.066;2023-04-08T08:43:32;1.80;;;1.70;;
24729;SDS011;12832;52.392;13.066;2023-04-08T08:46:01;1.92;;;1.80;;
24729;SDS011;12832;52.392;13.066;2023-04-08T08:48:36;1.80;;;1.70;;
24729;SDS011;12832;52.392;13.066;2023-04-08T08:51:08;1.80;;;1.70;;
24729;SDS011;12832;52.392;13.066;2023-04-08T08:53:41;2.00;;;1.90;;
24729;SDS011;12832;52.392;13.066;2023-04-08T08:56:11;2.10;;;1.90;;
24729;SDS011;12832;52.392;13.066;2023-04-08T08:58:40;2.05;;;1.92;;
24729;SDS011;12832;52.392;13.066;2023-04-08T09:04:07;2.05;;;1.95;;
24729;SDS011;12832;52.392;13.066;2023-04-08T09:06:40;2.13;;;1.92;;
24729;SDS011;12832;52.392;13.066;2023-04-08T09:09:07;2.00;;;1.90;;
24729;SDS011;12832;52.392;13.066;2023-04-08T09:11:40;2.10;;;1.90;;
24729;SDS011;12832;52.392;13.066;2023-04-08T09:14:18;2.28;;;2.08;;
24729;SDS011;12832;52.392;13.066;2023-04-08T09:16:50;2.35;;;2.15;;
24729;SDS011;12832;52.392;13.066;2023-04-08T09:19:21;1.95;;;1.85;;
24729;SDS011;12832;52.392;13.066;2023-04-08T09:22:08;2.13;;;1.92;;
24729;SDS011;12832;52.392;13.066;2023-04-08T09:24:36;2.45;;;2.25;;
24729;SDS011;12832;52.392;13.066;2023-04-08T09:27:05;2.42;;;2.22;;
24729;SDS011;12832;52.392;13.066;2023-04-08T09:29:33;2.08;;;1.98;;
24729;SDS011;12832;52.392;13.066;2023-04-08T09:32:06;2.30;;;2.10;;
24729;SDS011;12832;52.392;13.066;2023-04-08T09:34:36;2.53;;;2.33;;
24729;SDS011;12832;52.392;13.066;2023-04-08T09:37:17;2.40;;;2.20;;
24729;SDS011;12832;52.392;13.066;2023-04-08T09:39:45;2.40;;;2.20;;
24729;SDS011;12832;52.392;13.066;2023-04-08T09:42:11;2.20;;;2.00;;
24729;SDS011;12832;52.392;13.066;2023-04-08T09:44:38;2.40;;;2.20;;
24729;SDS011;12832;52.392;13.066;2023-04-08T09:47:15;2.50;;;2.30;;
24729;SDS011;12832;52.392;13.066;2023-04-08T09:49:48;2.50;;;2.30;;
24729;SDS011;12832;52.392;13.066;2023-04-08T09:52:31;2.58;;;2.08;;
24729;SDS011;12832;52.392;13.066;2023-04-08T09:55:04;2.35;;;2.15;;
24729;SDS011;12832;52.392;13.066;2023-04-08T09:57:41;2.33;;;2.13;;
24729;SDS011;12832;52.392;13.066;2023-04-08T10:00:12;2.53;;;2.33;;
24729;SDS011;12832;52.392;13.066;2023-04-08T10:02:44;2.50;;;2.30;;
24729;SDS011;12832;52.392;13.066;2023-04-08T10:05:41;2.35;;;2.15;;
24729;SDS011;12832;52.392;13.066;2023-04-08T10:08:29;2.50;;;2.30;;
24729;SDS011;12832;52.392;13.066;2023-04-08T10:11:05;2.40;;;2.20;;
24729;SDS011;12832;52.392;13.066;2023-04-08T10:13:32;2.45;;;2.25;;
24729;SDS011;12832;52.392;13.066;2023-04-08T10:18:54;2.72;;;2.53;;
24729;SDS011;12832;52.392;13.066;2023-04-08T10:21:38;2.28;;;2.08;;
24729;SDS011;12832;52.392;13.066;2023-04-08T10:24:12;2.22;;;2.05;;
24729;SDS011;12832;52.392;13.066;2023-04-08T10:26:42;2.60;;;2.40;;
24729;SDS011;12832;52.392;13.066;2023-04-08T10:31:51;2.53;;;2.33;;
24729;SDS011;12832;52.392;13.066;2023-04-08T10:34:20;2.67;;;2.47;;
24729;SDS011;12832;52.392;13.066;2023-04-08T10:36:59;2.47;;;2.28;;
24729;SDS011;12832;52.392;13.066;2023-04-08T10:42:25;2.70;;;2.45;;
24729;SDS011;12832;52.392;13.066;2023-04-08T10:44:52;2.60;;;2.40;;
24729;SDS011;12832;52.392;13.066;2023-04-08T10:47:30;2.75;;;2.55;;
24729;SDS011;12832;52.392;13.066;2023-04-08T10:49:59;2.55;;;2.35;;
24729;SDS011;12832;52.392;13.066;2023-04-08T10:52:25;2.53;;;2.33;;
24729;SDS011;12832;52.392;13.066;2023-04-08T10:54:52;2.35;;;2.15;;
24729;SDS011;12832;52.392;13.066;2023-04-08T10:57:25;2.55;;;2.30;;
24729;SDS011;12832;52.392;13.066;2023-04-08T10:59:58;2.60;;;2.40;;
24729;SDS011;12832;52.392;13.066;2023-04-08T11:02:31;2.58;;;2.38;;
24729;SDS011;12832;52.392;13.066;2023-04-08T11:04:58;2.40;;;2.20;;
24729;SDS011;12832;52.392;13.066;2023-04-08T11:07:24;2.47;;;2.28;;
24729;SDS011;12832;52.392;13.066;2023-04-08T11:09:51;2.30;;;2.10;;
24729;SDS011;12832;52.392;13.066;2023-04-08T11:12:18;2.67;;;2.40;;
24729;SDS011;12832;52.392;13.066;2023-04-08T11:14:47;2.63;;;2.42;;
24729;SDS011;12832;52.392;13.066;2023-04-08T11:17:15;2.55;;;2.35;;
24729;SDS011;12832;52.392;13.066;2023-04-08T11:19:42;2.50;;;2.30;;
24729;SDS011;12832;52.392;13.066;2023-04-08T11:22:12;2.60;;;2.40;;
24729;SDS011;12832;52.392;13.066;2023-04-08T11:24:43;2.22;;;2.03;;
24729;SDS011;12832;52.392;13.066;2023-04-08T11:27:11;2.80;;;2.60;;
24729;SDS011;12832;52.392;13.066;2023-04-08T11:29:48;2.58;;;2.38;;
24729;SDS011;12832;52.392;13.066;2023-04-08T11:32:16;2.53;;;2.33;;
24729;SDS011;12832;52.392;13.066;2023-04-08T11:34:44;3.10;;;2.80;;
24729;SDS011;12832;52.392;13.066;2023-04-08T11:37:13;2.90;;;2.65;;
24729;SDS011;12832;52.392;13.066;2023-04-08T11:40:05;3.00;;;2.70;;
24729;SDS011;12832;52.392;13.066;2023-04-08T11:42:32;2.80;;;2.60;;
24729;SDS011;12832;52.392;13.066;2023-04-08T11:45:00;2.85;;;2.65;;
24729;SDS011;12832;52.392;13.066;2023-04-08T11:47:33;2.63;;;2.42;;
24729;SDS011;12832;52.392;13.066;2023-04-08T11:50:31;2.75;;;2.55;;
24729;SDS011;12832;52.392;13.066;2023-04-08T11:52:57;2.67;;;2.47;;
24729;SDS011;12832;52.392;13.066;2023-04-08T11:55:25;2.88;;;2.65;;
24729;SDS011;12832;52.392;13.066;2023-04-08T11:57:51;2.83;;;2.63;;
24729;SDS011;12832;52.392;13.066;2023-04-08T12:00:20;2.72;;;2.53;;
24729;SDS011;12832;52.392;13.066;2023-04-08T12:02:52;2.95;;;2.58;;
24729;SDS011;12832;52.392;13.066;2023-04-08T12:05:20;3.10;;;2.90;;
24729;SDS011;12832;52.392;13.066;2023-04-08T12:07:49;2.92;;;2.72;;
24729;SDS011;12832;52.392;13.066;2023-04-08T12:10:18;3.17;;;2.90;;
24729;SDS011;12832;52.392;13.066;2023-04-08T12:12:45;2.80;;;2.60;;
24729;SDS011;12832;52.392;13.066;2023-04-08T12:15:14;2.85;;;2.65;;
24729;SDS011;12832;52.392;13.066;2023-04-08T12:17:40;2.88;;;2.67;;
24729;SDS011;12832;52.392;13.066;2023-04-08T12:20:16;2.38;;;2.17;;
24729;SDS011;12832;52.392;13.066;2023-04-08T12:22:43;2.97;;;2.78;;
24729;SDS011;12832;52.392;13.066;2023-04-08T12:25:11;2.90;;;2.70;;
24729;SDS011;12832;52.392;13.066;2023-04-08T12:27:37;3.03;;;2.72;;
24729;SDS011;12832;52.392;13.066;2023-04-08T12:30:06;2.97;;;2.78;;
24729;SDS011;12832;52.392;13.066;2023-04-08T12:32:42;2.90;;;2.70;;
24729;SDS011;12832;52.392;13.066;2023-04-08T12:35:13;2.92;;;2.70;;
24729;SDS011;12832;52.392;13.066;2023-04-08T12:37:41;3.08;;;2.80;;
24729;SDS011;12832;52.392;13.066;2023-04-08T12:40:10;2.78;;;2.58;;
24729;SDS011;12832;52.392;13.066;2023-04-08T12:42:36;2.95;;;2.67;;
24729;SDS011;12832;52.392;13.066;2023-04-08T12:45:03;3.10;;;2.90;;
24729;SDS011;12832;52.392;13.066;2023-04-08T12:47:44;2.75;;;2.55;;
24729;SDS011;12832;52.392;13.066;2023-04-08T12:50:14;2.70;;;2.50;;
24729;SDS011;12832;52.392;13.066;2023-04-08T12:52:47;2.83;;;2.63;;
24729;SDS011;12832;52.392;13.066;2023-04-08T12:55:16;3.00;;;2.80;;
24729;SDS011;12832;52.392;13.066;2023-04-08T12:57:44;2.90;;;2.70;;
24729;SDS011;12832;52.392;13.066;2023-04-08T13:00:14;2.90;;;2.70;;
24729;SDS011;12832;52.392;13.066;2023-04-08T13:02:41;2.63;;;2.42;;
24729;SDS011;12832;52.392;13.066;2023-04-08T13:05:09;2.75;;;2.47;;
24729;SDS011;12832;52.392;13.066;2023-04-08T13:07:38;2.88;;;2.67;;
24729;SDS011;12832;52.392;13.066;2023-04-08T13:10:05;3.15;;;2.90;;
24729;SDS011;12832;52.392;13.066;2023-04-08T13:12:36;3.05;;;2.83;;
24729;SDS011;12832;52.392;13.066;2023-04-08T13:15:08;2.90;;;2.70;;
24729;SDS011;12832;52.392;13.066;2023-04-08T13:17:37;3.20;;;3.00;;
24729;SDS011;12832;52.392;13.066;2023-04-08T13:20:08;2.95;;;2.65;;
24729;SDS011;12832;52.392;13.066;2023-04-08T13:22:35;2.47;;;2.28;;
24729;SDS011;12832;52.392;13.066;2023-04-08T13:25:02;2.88;;;2.67;;
24729;SDS011;12832;52.392;13.066;2023-04-08T13:27:32;3.20;;;2.90;;
24729;SDS011;12832;52.392;13.066;2023-04-08T13:30:00;3.20;;;3.00;;
24729;SDS011;12832;52.392;13.066;2023-04-08T13:32:28;2.80;;;2.60;;
24729;SDS011;12832;52.392;13.066;2023-04-08T13:34:58;3.05;;;2.85;;
24729;SDS011;12832;52.392;13.066;2023-04-08T13:37:27;2.90;;;2.70;;
24729;SDS011;12832;52.392;13.066;2023-04-08T13:39:54;3.10;;;2.80;;
24729;SDS011;12832;52.392;13.066;2023-04-08T13:42:21;2.95;;;2.72;;
24729;SDS011;12832;52.392;13.066;2023-04-08T13:44:48;2.80;;;2.60;;
24729;SDS011;12832;52.392;13.066;2023-04-08T13:47:17;3.08;;;2.60;;
24729;SDS011;12832;52.392;13.066;2023-04-08T13:49:46;3.10;;;2.90;;
24729;SDS011;12832;52.392;13.066;2023-04-08T13:52:13;2.78;;;2.47;;
24729;SDS011;12832;52.392;13.066;2023-04-08T13:54:40;3.20;;;2.85;;
24729;SDS011;12832;52.392;13.066;2023-04-08T13:57:07;3.00;;;2.78;;
24729;SDS011;12832;52.392;13.066;2023-04-08T13:59:38;2.90;;;2.70;;
24729;SDS011;12832;52.392;13.066;2023-04-08T14:02:18;3.13;;;2.83;;
24729;SDS011;12832;52.392;13.066;2023-04-08T14:04:46;2.78;;;2.58;;
24729;SDS011;12832;52.392;13.066;2023-04-08T14:07:13;2.67;;;2.47;;
24729;SDS011;12832;52.392;13.066;2023-04-08T14:09:41;3.25;;;2.60;;
24729;SDS011;12832;52.392;13.066;2023-04-08T14:12:10;2.95;;;2.75;;
24729;SDS011;12832;52.392;13.066;2023-04-08T14:14:36;2.90;;;2.58;;
24729;SDS011;12832;52.392;13.066;2023-04-08T14:17:02;2.90;;;2.70;;
24729;SDS011;12832;52.392;13.066;2023-04-08T14:19:32;2.97;;;2.67;;
24729;SDS011;12832;52.392;13.066;2023-04-08T14:22:02;2.60;;;2.40;;
24729;SDS011;12832;52.392;13.066;2023-04-08T14:24:29;2.78;;;2.58;;
24729;SDS011;12832;52.392;13.066;2023-04-08T14:26:59;2.70;;;2.50;;
24729;SDS011;12832;52.392;13.066;2023-04-08T14:29:25;2.60;;;2.40;;
24729;SDS011;12832;52.392;13.066;2023-04-08T14:31:55;2.75;;;2.55;;
24729;SDS011;12832;52.392;13.066;2023-04-08T14:34:26;2.95;;;2.75;;
24729;SDS011;12832;52.392;13.066;2023-04-08T14:36:56;2.85;;;2.65;;
24729;SDS011;12832;52.392;13.066;2023-04-08T14:39:22;3.25;;;3.05;;
24729;SDS011;12832;52.392;13.066;2023-04-08T14:41:53;2.75;;;2.55;;
24729;SDS011;12832;52.392;13.066;2023-04-08T14:44:25;3.10;;;2.83;;
24729;SDS011;12832;52.392;13.066;2023-04-08T14:46:56;2.83;;;2.63;;
24729;SDS011;12832;52.392;13.066;2023-04-08T14:49:28;2.60;;;2.40;;
24729;SDS011;12832;52.392;13.066;2023-04-08T14:52:01;2.97;;;2.70;;
24729;SDS011;12832;52.392;13.066;2023-04-08T14:54:27;3.13;;;2.83;;
24729;SDS011;12832;52.392;13.066;2023-04-08T14:56:55;2.83;;;2.63;;
24729;SDS011;12832;52.392;13.066;2023-04-08T14:59:23;2.70;;;2.50;;
24729;SDS011;12832;52.392;13.066;2023-04-08T15:01:50;2.95;;;2.75;;
24729;SDS011;12832;52.392;13.066;2023-04-08T15:04:22;2.53;;;2.33;;
24729;SDS011;12832;52.392;13.066;2023-04-08T15:06:55;2.92;;;2.72;;